createdAt,value
2023-04-22T00:01:36.734Z,47.86
2023-04-22T00:04:05.999Z,47.72
2023-04-22T00:06:35.340Z,49.51
2023-04-22T00:09:04.545Z,48.45
2023-04-22T00:11:33.735Z,48.73
2023-04-22T00:14:02.722Z,49.78
2023-04-22T00:16:33.638Z,51.39
2023-04-22T00:19:02.571Z,51.12
2023-04-22T00:21:32.499Z,50.21
2023-04-22T00:24:01.450Z,48.74
2023-04-22T00:26:30.977Z,50.81
2023-04-22T00:28:59.989Z,49.46
2023-04-22T00:31:29.138Z,48.46
2023-04-22T00:33:59.762Z,48.59
2023-04-22T00:36:28.900Z,49.83
2023-04-22T00:38:57.691Z,51.61
2023-04-22T00:41:27.177Z,50.66
2023-04-22T00:43:57.343Z,50.77
2023-04-22T00:46:26.513Z,50.60
2023-04-22T00:48:55.392Z,50.42
2023-04-22T00:51:28.030Z,50.52
2023-04-22T00:53:56.985Z,50.24
2023-04-22T00:56:26.516Z,51.25
2023-04-22T00:58:55.998Z,50.98
2023-04-22T01:01:25.999Z,50.88
2023-04-22T01:03:56.536Z,51.86
2023-04-22T01:06:29.054Z,52.41
2023-04-22T01:08:58.756Z,52.37
2023-04-22T01:11:27.801Z,52.72
2023-04-22T01:13:56.619Z,52.60
2023-04-22T01:16:29.056Z,52.55
2023-04-22T01:18:58.289Z,51.15
2023-04-22T01:21:29.682Z,51.23
2023-04-22T01:24:00.387Z,52.20
2023-04-22T01:26:29.989Z,51.82
2023-04-22T01:28:59.194Z,51.22
2023-04-22T01:31:28.408Z,53.29
2023-04-22T01:33:57.827Z,51.82
2023-04-22T01:36:28.175Z,50.44
2023-04-22T01:38:56.990Z,52.54
2023-04-22T01:41:30.963Z,51.83
2023-04-22T01:44:01.351Z,52.48
2023-04-22T01:46:30.776Z,52.55
2023-04-22T01:48:59.789Z,51.18
2023-04-22T01:51:28.925Z,49.85
2023-04-22T01:53:58.276Z,49.48
2023-04-22T01:56:27.301Z,49.77
2023-04-22T01:58:57.792Z,51.64
2023-04-22T02:01:27.068Z,49.60
2023-04-22T02:03:55.905Z,51.05
2023-04-22T02:06:26.145Z,53.06
2023-04-22T02:08:55.510Z,52.70
2023-04-22T02:11:24.547Z,52.62
2023-04-22T02:13:53.520Z,52.65
2023-04-22T02:16:24.270Z,52.36
2023-04-22T02:18:53.413Z,52.71
2023-04-22T02:21:22.552Z,53.67
2023-04-22T02:23:51.462Z,52.83
2023-04-22T02:26:20.828Z,52.18
2023-04-22T02:28:50.018Z,53.31
2023-04-22T02:31:20.207Z,52.42
2023-04-22T02:33:50.551Z,51.84
2023-04-22T02:36:19.849Z,52.98
2023-04-22T02:38:49.063Z,53.17
2023-04-22T02:41:18.225Z,52.89
2023-04-22T02:43:47.266Z,52.42
2023-04-22T02:46:17.209Z,53.81
2023-04-22T02:48:46.289Z,53.18
2023-04-22T02:51:17.004Z,53.12
2023-04-22T02:53:45.946Z,52.58
2023-04-22T02:56:15.021Z,51.71
2023-04-22T02:58:44.480Z,52.06
2023-04-22T03:01:14.018Z,53.10
2023-04-22T03:03:43.583Z,53.27
2023-04-22T03:06:18.435Z,53.41
2023-04-22T03:08:47.375Z,53.44
2023-04-22T03:11:18.033Z,53.27
2023-04-22T03:13:46.905Z,53.22
2023-04-22T03:16:18.012Z,53.59
2023-04-22T03:18:47.448Z,54.25
2023-04-22T03:21:17.924Z,54.46
2023-04-22T03:23:46.849Z,54.20
2023-04-22T03:26:16.300Z,54.04
2023-04-22T03:28:45.184Z,54.17
2023-04-22T03:31:14.720Z,53.80
2023-04-22T03:33:43.733Z,54.45
2023-04-22T03:36:22.655Z,53.56
2023-04-22T03:38:51.647Z,53.79
2023-04-22T03:41:21.697Z,54.88
2023-04-22T03:43:50.878Z,55.62
2023-04-22T03:46:20.142Z,56.58
2023-04-22T03:48:58.164Z,56.12
2023-04-22T03:51:35.737Z,56.45
2023-04-22T03:54:09.467Z,56.55
2023-04-22T03:56:43.113Z,56.52
2023-04-22T03:59:12.116Z,56.81
2023-04-22T04:01:43.922Z,56.86
2023-04-22T04:04:16.178Z,57.09
2023-04-22T04:06:56.650Z,57.00
2023-04-22T04:09:25.898Z,56.34
2023-04-22T04:11:55.006Z,57.15
2023-04-22T04:14:24.244Z,56.83
2023-04-22T04:16:54.400Z,56.82
2023-04-22T04:19:28.987Z,57.30
2023-04-22T04:22:01.109Z,57.67
2023-04-22T04:24:33.813Z,57.10
2023-04-22T04:27:08.956Z,57.28
2023-04-22T04:29:45.119Z,57.02
2023-04-22T04:32:19.323Z,57.35
2023-04-22T04:34:48.573Z,57.07
2023-04-22T04:37:22.426Z,57.62
2023-04-22T04:40:04.925Z,57.88
2023-04-22T04:42:46.191Z,57.67
2023-04-22T04:45:21.117Z,56.82
2023-04-22T04:47:52.819Z,57.35
2023-04-22T04:50:28.180Z,57.30
2023-04-22T04:53:02.917Z,57.35
2023-04-22T04:55:40.171Z,56.91
2023-04-22T04:58:16.633Z,56.81
2023-04-22T05:00:45.911Z,56.95
2023-04-22T05:03:17.268Z,56.55
2023-04-22T05:05:48.971Z,57.04
2023-04-22T05:08:19.827Z,56.86
2023-04-22T05:10:50.852Z,57.13
2023-04-22T05:13:22.030Z,56.97
2023-04-22T05:15:52.132Z,56.68
2023-04-22T05:18:21.590Z,57.00
2023-04-22T05:20:50.563Z,57.19
2023-04-22T05:23:22.835Z,56.59
2023-04-22T05:25:55.120Z,56.88
2023-04-22T05:28:26.592Z,56.74
2023-04-22T05:30:58.883Z,56.40
2023-04-22T05:33:31.222Z,56.43
2023-04-22T05:36:00.395Z,56.55
2023-04-22T05:38:32.902Z,56.28
2023-04-22T05:41:02.496Z,55.09
2023-04-22T05:43:32.789Z,54.63
2023-04-22T05:46:22.024Z,55.03
2023-04-22T05:48:51.583Z,54.69
2023-04-22T05:51:39.094Z,56.08
2023-04-22T05:54:09.728Z,55.72
2023-04-22T05:56:38.698Z,56.07
2023-04-22T05:59:07.928Z,55.96
2023-04-22T06:01:37.395Z,56.02
2023-04-22T06:04:11.906Z,55.45
2023-04-22T06:06:41.215Z,55.49
2023-04-22T06:09:12.186Z,55.28
2023-04-22T06:11:43.011Z,54.79
2023-04-22T06:14:15.479Z,55.10
2023-04-22T06:16:47.009Z,54.78
2023-04-22T06:19:16.489Z,54.59
2023-04-22T06:21:45.345Z,54.12
2023-04-22T06:24:15.938Z,54.27
2023-04-22T06:26:44.881Z,54.19
2023-04-22T06:29:14.835Z,53.98
2023-04-22T06:31:44.469Z,53.89
2023-04-22T06:34:14.984Z,53.83
2023-04-22T06:36:45.093Z,53.98
2023-04-22T06:39:15.721Z,53.93
2023-04-22T06:42:06.242Z,53.92
2023-04-22T06:45:15.138Z,53.94
2023-04-22T06:47:53.526Z,54.09
2023-04-22T06:50:26.271Z,53.88
2023-04-22T06:52:59.692Z,53.75
2023-04-22T06:55:29.050Z,53.68
2023-04-22T06:58:00.504Z,53.64
2023-04-22T07:00:29.769Z,53.48
2023-04-22T07:03:00.663Z,53.20
2023-04-22T07:05:30.828Z,53.26
2023-04-22T07:08:01.178Z,52.99
2023-04-22T07:10:30.580Z,53.09
2023-04-22T07:13:24.165Z,53.02
2023-04-22T07:15:53.526Z,53.03
2023-04-22T07:18:22.345Z,52.79
2023-04-22T07:20:51.392Z,52.89
2023-04-22T07:23:20.370Z,52.66
2023-04-22T07:25:49.473Z,52.59
2023-04-22T07:28:18.613Z,52.64
2023-04-22T07:30:49.665Z,52.57
2023-04-22T07:33:18.719Z,52.45
2023-04-22T07:35:48.358Z,52.39
2023-04-22T07:38:17.633Z,52.44
2023-04-22T07:40:46.674Z,52.22
2023-04-22T07:43:16.812Z,52.20
2023-04-22T07:45:46.279Z,51.84
2023-04-22T07:48:16.601Z,52.08
2023-04-22T07:50:45.765Z,52.17
2023-04-22T07:53:15.924Z,51.60
2023-04-22T07:55:45.301Z,50.62
2023-04-22T07:58:14.145Z,50.57
2023-04-22T08:00:43.260Z,50.73
2023-04-22T08:03:12.422Z,50.69
2023-04-22T08:05:42.961Z,50.56
2023-04-22T08:08:11.968Z,50.63
2023-04-22T08:10:40.993Z,50.21
2023-04-22T08:13:09.926Z,50.97
2023-04-22T08:15:40.605Z,50.42
2023-04-22T08:18:09.573Z,49.67
2023-04-22T08:20:38.647Z,50.27
2023-04-22T08:23:09.025Z,50.20
2023-04-22T08:25:38.206Z,49.72
2023-04-22T08:28:06.934Z,50.01
2023-04-22T08:30:36.268Z,49.69
2023-04-22T08:33:05.042Z,49.96
2023-04-22T08:35:35.789Z,50.88
2023-04-22T08:38:05.004Z,50.56
2023-04-22T08:40:35.638Z,50.19
2023-04-22T08:43:05.198Z,49.46
2023-04-22T08:45:34.623Z,49.62
2023-04-22T08:48:03.746Z,48.95
2023-04-22T08:50:33.388Z,49.39
2023-04-22T08:53:02.250Z,49.35
2023-04-22T08:55:32.230Z,50.08
2023-04-22T08:58:04.287Z,49.63
2023-04-22T09:00:34.518Z,48.29
2023-04-22T09:03:04.571Z,49.11
2023-04-22T09:05:34.382Z,48.85
2023-04-22T09:08:04.212Z,49.10
2023-04-22T09:10:34.354Z,49.28
2023-04-22T09:13:05.624Z,47.98
2023-04-22T09:15:35.078Z,48.42
2023-04-22T09:18:05.656Z,49.07
2023-04-22T09:20:34.850Z,47.89
2023-04-22T09:23:05.070Z,47.85
2023-04-22T09:25:34.865Z,48.56
2023-04-22T09:28:05.080Z,47.74
2023-04-22T09:30:36.130Z,46.62
2023-04-22T09:33:06.474Z,48.13
2023-04-22T09:35:37.000Z,48.31
2023-04-22T09:38:08.033Z,46.71
2023-04-22T09:40:38.243Z,46.20
2023-04-22T09:43:09.479Z,47.20
2023-04-22T09:45:40.354Z,46.84
2023-04-22T09:48:10.763Z,46.18
2023-04-22T09:50:41.140Z,46.95
2023-04-22T09:53:11.456Z,46.89
2023-04-22T09:55:42.461Z,47.26
2023-04-22T09:58:13.716Z,47.20
2023-04-22T10:00:44.273Z,46.56
2023-04-22T10:03:13.293Z,46.79
2023-04-22T10:05:42.717Z,47.58
2023-04-22T10:08:12.104Z,46.81
2023-04-22T10:10:41.588Z,47.30
2023-04-22T10:13:10.686Z,46.49
2023-04-22T10:15:42.545Z,46.21
2023-04-22T10:18:13.895Z,46.82
2023-04-22T10:20:44.415Z,46.83
2023-04-22T10:23:14.496Z,46.19
2023-04-22T10:25:43.990Z,46.96
2023-04-22T10:28:13.601Z,47.17
2023-04-22T10:30:45.628Z,47.79
2023-04-22T10:33:36.524Z,46.64
2023-04-22T10:36:09.787Z,47.44
2023-04-22T10:38:39.403Z,47.29
2023-04-22T10:41:08.579Z,46.59
2023-04-22T10:43:44.139Z,46.88
2023-04-22T10:46:31.937Z,47.24
2023-04-22T10:49:07.297Z,46.38
2023-04-22T10:51:39.866Z,47.02
2023-04-22T10:54:09.214Z,46.41
2023-04-22T10:57:01.962Z,47.99
2023-04-22T10:59:31.065Z,46.41
2023-04-22T11:02:02.456Z,47.95
2023-04-22T11:04:32.926Z,45.97
2023-04-22T11:07:14.696Z,45.55
2023-04-22T11:09:45.614Z,46.06
2023-04-22T11:12:42.314Z,47.17
2023-04-22T11:15:12.404Z,45.75
2023-04-22T11:17:43.795Z,47.36
2023-04-22T11:20:17.499Z,46.79
2023-04-22T11:22:47.514Z,47.72
2023-04-22T11:25:16.621Z,46.41
2023-04-22T11:27:45.729Z,45.07
2023-04-22T11:30:16.212Z,45.61
2023-04-22T11:32:46.438Z,45.19
2023-04-22T11:35:18.508Z,46.19
2023-04-22T11:37:48.675Z,46.24
2023-04-22T11:40:29.073Z,46.89
2023-04-22T11:43:00.360Z,46.86
2023-04-22T11:45:29.899Z,47.09
2023-04-22T11:47:59.236Z,46.62
2023-04-22T11:50:29.951Z,45.38
2023-04-22T11:53:01.128Z,46.05
2023-04-22T11:55:31.249Z,45.69
2023-04-22T11:58:01.850Z,45.94
2023-04-22T12:00:31.841Z,45.41
2023-04-22T12:03:02.140Z,47.28
2023-04-22T12:05:37.429Z,46.50
2023-04-22T12:08:10.920Z,45.38
2023-04-22T12:10:41.587Z,45.50
2023-04-22T12:13:11.115Z,45.31
2023-04-22T12:15:40.968Z,45.37
2023-04-22T12:18:12.051Z,46.02
2023-04-22T12:20:43.126Z,45.78
2023-04-22T12:23:15.939Z,44.69
2023-04-22T12:25:45.167Z,45.86
2023-04-22T12:28:14.343Z,46.12
2023-04-22T12:30:43.517Z,44.68
2023-04-22T12:33:12.727Z,43.93
2023-04-22T12:35:43.447Z,44.40
2023-04-22T12:38:12.658Z,45.77
2023-04-22T12:40:41.857Z,45.92
2023-04-22T12:43:11.079Z,45.27
2023-04-22T12:45:39.831Z,45.07
2023-04-22T12:48:09.003Z,44.58
2023-04-22T12:50:37.739Z,45.89
2023-04-22T12:53:08.440Z,45.62
2023-04-22T12:55:37.729Z,44.42
2023-04-22T12:58:06.924Z,44.43
2023-04-22T13:00:36.071Z,44.54
2023-04-22T13:03:05.334Z,43.96
2023-04-22T13:05:34.548Z,44.38
2023-04-22T13:08:07.537Z,45.51
2023-04-22T13:10:38.417Z,45.16
2023-04-22T13:15:40.562Z,45.12
2023-04-22T13:18:09.762Z,43.72
2023-04-22T13:20:39.842Z,45.02
2023-04-22T13:23:09.812Z,44.50
2023-04-22T13:25:40.081Z,45.06
2023-04-22T13:28:11.649Z,44.19
2023-04-22T13:30:40.904Z,45.11
2023-04-22T13:33:10.090Z,44.83
2023-04-22T13:35:39.009Z,44.66
2023-04-22T13:38:08.093Z,44.29
2023-04-22T13:40:37.120Z,45.30
2023-04-22T13:43:09.242Z,44.97
2023-04-22T13:45:38.251Z,44.26
2023-04-22T13:48:07.394Z,44.33
2023-04-22T13:50:36.539Z,42.07
2023-04-22T13:53:09.961Z,43.84
2023-04-22T13:55:39.525Z,43.64
2023-04-22T13:58:10.219Z,42.59
2023-04-22T14:00:39.168Z,42.90
2023-04-22T14:03:08.311Z,42.56
2023-04-22T14:05:37.348Z,40.68
2023-04-22T14:08:06.481Z,42.78
2023-04-22T14:10:35.745Z,40.70
2023-04-22T14:13:04.784Z,38.74
2023-04-22T14:15:35.125Z,41.57
2023-04-22T14:18:04.437Z,37.95
2023-04-22T14:20:33.300Z,41.93
2023-04-22T14:23:05.170Z,40.71
2023-04-22T14:25:34.067Z,41.48
2023-04-22T14:28:03.398Z,39.46
2023-04-22T14:30:32.375Z,36.70
2023-04-22T14:33:07.060Z,39.37
2023-04-22T14:35:35.996Z,39.97
2023-04-22T14:38:06.036Z,38.32
2023-04-22T14:40:35.172Z,34.36
2023-04-22T14:43:05.635Z,35.45
2023-04-22T14:45:34.710Z,34.75
2023-04-22T14:48:05.213Z,34.33
2023-04-22T14:50:34.533Z,34.03
2023-04-22T14:53:03.668Z,37.94
2023-04-22T14:55:32.669Z,34.45
2023-04-22T14:58:02.064Z,36.71
2023-04-22T15:00:31.000Z,34.53
2023-04-22T15:03:00.379Z,34.73
2023-04-22T15:05:33.146Z,36.04
2023-04-22T15:08:02.464Z,31.42
2023-04-22T15:10:31.293Z,34.24
2023-04-22T15:13:00.495Z,32.77
2023-04-22T15:15:29.310Z,33.12
2023-04-22T15:17:58.599Z,32.73
2023-04-22T15:20:27.496Z,30.67
2023-04-22T15:22:57.955Z,32.94
2023-04-22T15:25:27.478Z,31.24
2023-04-22T15:27:57.152Z,31.66
2023-04-22T15:30:26.230Z,32.38
2023-04-22T15:32:55.370Z,31.71
2023-04-22T15:35:24.637Z,30.05
2023-04-22T15:37:54.213Z,30.63
2023-04-22T15:40:24.659Z,29.51
2023-04-22T15:42:54.048Z,32.75
2023-04-22T15:45:22.811Z,28.44
2023-04-22T15:47:52.780Z,27.37
2023-04-22T15:50:23.450Z,31.30
2023-04-22T15:52:53.101Z,27.21
2023-04-22T15:55:21.939Z,28.90
2023-04-22T15:57:52.564Z,29.86
2023-04-22T16:00:21.568Z,30.30
2023-04-22T16:02:55.312Z,31.23
2023-04-22T16:05:26.631Z,30.82
2023-04-22T16:07:56.397Z,29.33
2023-04-22T16:10:26.545Z,27.33
2023-04-22T16:12:57.121Z,29.99
2023-04-22T16:15:27.055Z,28.33
2023-04-22T16:17:56.387Z,28.33
2023-04-22T16:20:25.400Z,29.20
2023-04-22T16:22:54.660Z,29.16
2023-04-22T16:25:23.509Z,31.80
2023-04-22T16:27:52.748Z,29.47
2023-04-22T16:30:30.394Z,30.04
2023-04-22T16:33:01.904Z,29.02
2023-04-22T16:35:33.547Z,30.61
2023-04-22T16:38:03.126Z,30.59
2023-04-22T16:40:32.317Z,30.14
2023-04-22T16:43:05.184Z,30.82
2023-04-22T16:45:36.658Z,30.99
2023-04-22T16:48:05.885Z,31.34
2023-04-22T16:50:34.621Z,32.22
2023-04-22T16:53:03.881Z,31.52
2023-04-22T16:55:33.340Z,32.38
2023-04-22T16:58:05.347Z,31.96
2023-04-22T17:00:34.231Z,32.41
2023-04-22T17:03:05.888Z,32.53
2023-04-22T17:05:36.111Z,32.90
2023-04-22T17:08:05.211Z,33.08
2023-04-22T17:10:34.859Z,33.31
2023-04-22T17:13:04.357Z,33.55
2023-04-22T17:15:33.121Z,33.52
2023-04-22T17:18:02.600Z,34.13
2023-04-22T17:20:32.929Z,34.17
2023-04-22T17:23:02.238Z,34.56
2023-04-22T17:25:31.099Z,34.77
2023-04-22T17:28:00.487Z,34.99
2023-04-22T17:30:29.233Z,35.10
2023-04-22T17:32:58.638Z,35.01
2023-04-22T17:35:29.411Z,35.46
2023-04-22T17:38:00.539Z,35.52
2023-04-22T17:40:30.541Z,35.91
2023-04-22T17:43:00.476Z,36.30
2023-04-22T17:45:31.535Z,36.01
2023-04-22T17:48:01.004Z,36.54
2023-04-22T17:50:31.244Z,36.54
2023-04-22T17:53:03.786Z,37.05
2023-04-22T17:55:35.337Z,36.81
2023-04-22T17:58:06.472Z,37.41
2023-04-22T18:00:37.935Z,37.71
2023-04-22T18:03:07.830Z,37.96
2023-04-22T18:05:43.186Z,37.97
2023-04-22T18:08:14.588Z,38.17
2023-04-22T18:10:46.187Z,38.66
2023-04-22T18:13:17.615Z,39.00
2023-04-22T18:15:46.549Z,39.10
2023-04-22T18:18:16.250Z,39.37
2023-04-22T18:20:46.323Z,39.62
2023-04-22T18:23:19.438Z,39.39
2023-04-22T18:25:50.681Z,39.73
2023-04-22T18:28:21.588Z,39.56
2023-04-22T18:30:51.408Z,39.57
2023-04-22T18:33:23.699Z,40.29
2023-04-22T18:35:55.067Z,40.46
2023-04-22T18:38:26.552Z,40.53
2023-04-22T18:40:57.350Z,40.53
2023-04-22T18:43:32.014Z,40.69
2023-04-22T18:46:01.128Z,40.74
2023-04-22T18:48:30.801Z,41.16
2023-04-22T18:50:59.639Z,41.19
2023-04-22T18:53:30.399Z,40.98
2023-04-22T18:56:00.472Z,41.11
2023-04-22T18:58:29.559Z,41.51
2023-04-22T19:00:58.539Z,41.31
2023-04-22T19:03:27.813Z,41.70
2023-04-22T19:05:56.867Z,41.53
2023-04-22T19:08:25.926Z,41.63
2023-04-22T19:10:56.214Z,41.64
2023-04-22T19:13:29.586Z,41.90
2023-04-22T19:15:59.962Z,42.13
2023-04-22T19:18:30.773Z,42.88
2023-04-22T19:20:59.545Z,42.33
2023-04-22T19:23:31.599Z,42.68
2023-04-22T19:26:02.323Z,43.17
2023-04-22T19:28:31.506Z,42.50
2023-04-22T19:31:01.054Z,42.65
2023-04-22T19:33:30.974Z,43.05
2023-04-22T19:36:01.384Z,42.81
2023-04-22T19:38:30.725Z,42.54
2023-04-22T19:41:01.052Z,42.82
2023-04-22T19:43:32.229Z,42.90
2023-04-22T19:46:04.320Z,43.74
2023-04-22T19:48:36.692Z,43.51
2023-04-22T19:51:07.888Z,43.65
2023-04-22T19:53:38.123Z,43.80
2023-04-22T19:56:09.678Z,43.46
2023-04-22T19:58:43.492Z,43.42
2023-04-22T20:01:13.132Z,43.52
2023-04-22T20:03:42.833Z,43.44
2023-04-22T20:06:12.760Z,43.39
2023-04-22T20:08:43.726Z,43.40
2023-04-22T20:11:16.286Z,43.47
2023-04-22T20:13:49.761Z,43.70
2023-04-22T20:16:21.336Z,43.82
2023-04-22T20:18:51.416Z,44.41
2023-04-22T20:21:22.296Z,44.44
2023-04-22T20:23:53.293Z,44.23
2023-04-22T20:26:24.084Z,43.98
2023-04-22T20:28:55.309Z,43.82
2023-04-22T20:31:25.161Z,44.07
2023-04-22T20:33:57.530Z,44.40
2023-04-22T20:36:27.691Z,44.28
2023-04-22T20:38:59.830Z,44.15
2023-04-22T20:41:29.705Z,44.06
2023-04-22T20:44:03.848Z,44.34
2023-04-22T20:46:35.212Z,44.44
2023-04-22T20:49:05.074Z,44.77
2023-04-22T20:51:34.009Z,44.40
2023-04-22T20:54:04.674Z,44.30
2023-04-22T20:56:33.835Z,44.47
2023-04-22T20:59:04.605Z,44.52
2023-04-22T21:01:36.234Z,44.77
2023-04-22T21:04:06.848Z,44.58
2023-04-22T21:06:36.005Z,45.14
2023-04-22T21:09:07.398Z,44.73
2023-04-22T21:11:36.762Z,44.69
2023-04-22T21:14:07.609Z,44.96
2023-04-22T21:16:40.628Z,44.83
2023-04-22T21:19:10.407Z,44.71
2023-04-22T21:21:40.130Z,44.86
2023-04-22T21:24:10.066Z,45.13
2023-04-22T21:26:40.189Z,45.16
2023-04-22T21:29:11.139Z,44.98
2023-04-22T21:31:40.271Z,44.94
2023-04-22T21:34:09.770Z,45.15
2023-04-22T21:36:39.343Z,45.33
2023-04-22T21:39:08.503Z,46.02
2023-04-22T21:41:37.567Z,45.39
2023-04-22T21:44:06.873Z,45.16
2023-04-22T21:46:37.244Z,45.33
2023-04-22T21:49:06.630Z,45.20
2023-04-22T21:51:35.583Z,45.07
2023-04-22T21:54:04.928Z,45.28
2023-04-22T21:56:33.787Z,45.42
2023-04-22T21:59:02.981Z,45.51
2023-04-22T22:01:31.760Z,45.16
2023-04-22T22:04:02.773Z,45.90
2023-04-22T22:06:33.264Z,45.57
2023-04-22T22:09:02.574Z,45.51
2023-04-22T22:11:31.649Z,45.64
2023-04-22T22:14:00.981Z,45.71
2023-04-22T22:16:30.996Z,46.17
2023-04-22T22:19:04.629Z,46.13
2023-04-22T22:21:33.956Z,45.65
2023-04-22T22:24:02.996Z,45.89
2023-04-22T22:26:31.908Z,45.83
2023-04-22T22:29:00.991Z,46.16
2023-04-22T22:31:30.410Z,46.17
2023-04-22T22:33:59.504Z,46.05
2023-04-22T22:36:29.816Z,46.04
2023-04-22T22:38:59.083Z,46.31
2023-04-22T22:41:27.832Z,46.08
2023-04-22T22:43:57.253Z,46.65
2023-04-22T22:46:26.101Z,46.50
2023-04-22T22:48:55.647Z,48.67
2023-04-22T22:51:24.398Z,47.11
2023-04-22T22:53:54.846Z,46.40
2023-04-22T22:56:24.122Z,46.82
2023-04-22T22:58:53.170Z,47.60
2023-04-22T23:01:22.233Z,47.25
2023-04-22T23:03:51.412Z,47.12
2023-04-22T23:06:20.716Z,50.18
2023-04-22T23:08:49.816Z,47.87
2023-04-22T23:11:20.095Z,47.26
2023-04-22T23:13:49.249Z,46.90
2023-04-22T23:16:18.600Z,48.44
2023-04-22T23:18:48.269Z,47.07
2023-04-22T23:21:17.500Z,49.18
2023-04-22T23:23:46.738Z,50.77
2023-04-22T23:26:15.810Z,48.08
2023-04-22T23:28:46.614Z,48.48
2023-04-22T23:31:18.304Z,50.44
2023-04-22T23:33:50.802Z,48.88
2023-04-22T23:36:20.355Z,48.56
2023-04-22T23:38:49.528Z,49.19
2023-04-22T23:41:18.278Z,48.30
2023-04-22T23:43:49.399Z,49.00
2023-04-22T23:46:18.874Z,50.14
2023-04-22T23:48:48.331Z,51.38
2023-04-22T23:51:17.552Z,48.91
2023-04-22T23:53:46.690Z,49.50
2023-04-22T23:56:20.160Z,48.32
2023-04-22T23:58:51.322Z,48.49
